x

Columbia River Bar - 20nm West Of Columbia River Mouth (46029) Wave Buoy

3:50pm - Sun 28th Aug 2016 All times are PDT. -7 hours from GMT.

  • Sig Wave height 3.9ft
  • Swell Direction
  • Peak Period 8s
  • Average Period 7s
  • Wind
    7mph
  • Sea Temp 60°f
  • 空気 Temp 60°f
  • Sea Pressure 1019mb
  • Columbia River Bar - 20nm West Of Columbia River Mouth
  • Columbia River Bar - 20nm West Of Columbia River Mouth

More Historic Weather Station data

Upgrade to MSW Pro to gain access to the past 30 days of data for over 8000 Wavebouys and Weather Stations around the globe.

Join Pro

Comparision Forecast

View Surf forecast
   
Sun 08/28 3:50pm 4ft 8s 7s 7
mph
1019mb 60f 60f
2:50pm 4ft 8s 7s 7 9 mph 1019.4mb 60f 60f
1:50pm 4.5ft 8s 7s 7
mph
1019.5mb 60f 60f
12:50pm 3.5ft 7s 7s 7
mph
1019.2mb 59f 60f
11:50am 4.5ft 8s 7s 7 9 mph 1018.9mb 59f 60f
10:50am 4ft 8s 7s 7
mph
1018.9mb 59f 60f
9:50am 4.5ft 8s 7s 4 7 mph 1018.6mb 59f 59f
8:50am 3.5ft 8s 7s 9
mph
1018.2mb 59f 59f
7:50am 4ft 8s 6s 7 9 mph 1018.1mb 59f 59f
6:50am 4ft 8s 7s 4 7 mph 1018.2mb 59f 59f
5:50am 4ft 8s 7s 4 7 mph 1018.1mb 59f 59f
4:50am 4.5ft 8s 6s 4 7 mph 1017.9mb 59f 59f
3:50am 4.5ft 8s 6s 2 4 mph 1018mb 59f 59f
2:50am 4.5ft 8s 6s 2 4 mph 1017.9mb 59f 59f
12:50am 5ft 8s 6s 2 4 mph 1017.5mb 59f 59f
Sat 08/27 11:50pm 5.5ft 8s 7s 2 4 mph 1017.4mb 59f 59f
10:50pm 5.5ft 8s 6s 4 7 mph 1017.1mb 59f 59f
9:50pm 6ft 8s 7s 4 7 mph 1017mb 59f 59f
7:50pm 6ft 9s 7s 7 9 mph 1016.6mb 60f 60f
6:50pm 5.5ft 8s 6s 7 9 mph 1016.3mb 60f 60f
5:50pm 5.5ft 8s 6s 4
mph
1016.2mb 60f 61f
4:50pm 6ft 8s 7s 2 4 mph 1016.3mb 59f 60f
3:50pm 6.5ft 9s 7s  -  2 mph 1016.2mb 59f 60f
2:50pm 7ft 9s 7s 2 4 mph 1016.1mb 59f 59f
1:50pm 7ft 9s 7s 4
mph
1016.1mb 59f 59f
12:50pm 8ft 9s 7s 4 7 mph 1016mb 58f 59f
11:50am 8ft 9s 7s 2 4 mph 1015.4mb 58f 59f
10:50am 8ft 9s 7s 2 4 mph 1015.3mb 58f 59f
9:50am 7ft 8s 7s 7 9 mph 1014.8mb 58f 59f
8:50am 6ft 9s 6s 4 7 mph 1014.4mb 58f 58f
7:50am 5.5ft 9s 6s 7 9 mph 1014.2mb 58f 58f
6:50am 5ft 9s 6s 9 11 mph 1013.8mb 58f 58f
5:50am 5ft 8s 6s 4 7 mph 1013.4mb 57f 60f
4:50am 5ft 9s 6s 4 7 mph 1013.1mb 57f 60f
3:50am 4.5ft 9s 6s 7
mph
1012.8mb 57f 59f
2:50am 5ft 10s 7s 7 9 mph 1012.8mb 58f 60f
1:50am 5ft 9s 7s 7 9 mph 1012.8mb 59f 59f
12:50am 5ft 9s 7s 7
mph
1012.6mb 59f 59f
Fri 08/26 11:50pm 5ft 9s 7s 7 9 mph 1012.6mb 57f 59f
10:50pm 5ft 9s 7s 7
mph
1012.3mb 57f 58f
9:50pm 5.5ft 9s 7s 2 4 mph 1012.2mb 57f 59f
8:50pm 5.5ft 9s 7s 4
mph
1012mb 57f 59f
7:50pm 5ft 9s 7s 9 11 mph 1011.3mb 58f 60f
6:50pm 5ft 9s 7s 7
mph
1011.5mb 58f 60f
5:50pm 5ft 9s 7s 9 11 mph 1011.7mb 58f 60f
4:50pm 4.5ft 9s 7s 11
mph
1012.1mb 58f 61f
3:50pm 5ft 8s 7s 11 13 mph 1012.4mb 59f 61f
2:50pm 5ft 9s 7s 11 13 mph 1012.8mb 60f 61f
1:50pm 6ft 9s 7s 9 11 mph 1013.1mb 61f 61f
12:50pm 6ft 9s 7s 9 11 mph 1013.1mb 60f 60f
11:50am 6ft 9s 7s 9 11 mph 1013.1mb 59f 60f
10:50am 6.5ft 9s 7s 9 11 mph 1013.4mb 59f 59f
9:50am 6ft 9s 7s 9 11 mph 1013.4mb 58f 58f
8:50am 6ft 10s 7s 11
mph
1013.3mb 58f 58f
7:50am 6ft 10s 7s 13
mph
1013.3mb 58f 58f
6:50am 5.5ft 10s 7s 11 13 mph 1013.2mb 58f 58f
5:50am 5.5ft 10s 7s 11 13 mph 1013.2mb 58f 58f
4:50am 5.5ft 9s 7s 11 13 mph 1013.4mb 58f 58f
3:50am 5ft 10s 7s 11 13 mph 1013.6mb 58f 59f
2:50am 5ft 10s 6s 11
mph
1013.8mb 58f 59f
1:50am 5ft 9s 6s 11 13 mph 1014.4mb 59f 59f
12:50am 6ft 8s 6s 9 11 mph 1014.3mb 58f 59f
Thu 08/25 11:50pm 6ft 9s 7s 9 11 mph 1014.6mb 58f 59f
10:50pm 6ft 9s 6s 13 16 mph 1015mb 58f 59f
9:50pm 6ft 9s 6s 16 18 mph 1014.8mb 57f 60f
8:50pm 6ft 8s 6s 20 22 mph 1014.4mb 57f 61f
7:50pm 5ft 8s 6s 18 22 mph 1014.2mb 58f 61f
6:50pm 4.5ft 9s 6s 13 16 mph 1014.6mb 58f 61f
5:50pm 4.5ft 10s 6s 13 16 mph 1015.1mb 58f 61f
4:50pm 4.5ft 8s 6s 18 20 mph 1015.6mb 58f 62f
3:50pm 3.5ft 10s 6s 18
mph
1016.4mb 58f 62f
2:50pm 4ft 10s 6s 16 18 mph 1017mb 60f 61f
1:50pm 3.5ft 10s 6s 13 16 mph 1017.5mb 60f 62f
12:50pm 4.5ft 10s 6s 11
mph
1017.9mb 60f 61f
11:50am 4ft 10s 6s 4 7 mph 1018.4mb 59f 61f
10:50am 4ft 10s 6s 7 9 mph 1018.8mb 58f 61f
9:50am 4.5ft 7s 6s 4
mph
1018.9mb 58f 61f
8:50am 4.5ft 7s 6s 4 7 mph 1019.1mb 57f 60f
7:50am 4ft 7s 6s 11 13 mph 1019.2mb 57f 60f
6:50am 3.5ft 8s 6s 9 11 mph 1018.7mb 57f 59f
5:50am 4ft 8s 6s 7
mph
1018.6mb 58f 59f
4:50am 3.5ft 8s 6s 9 11 mph 1018.9mb 56f 59f
3:50am 3.5ft 8s 5s 11 13 mph 1019mb 56f 59f
2:50am 3.5ft 8s 6s 11 13 mph 1019.1mb 56f 58f
1:50am 3.5ft 8s 6s 13
mph
1019.1mb 56f 58f
12:50am 3.5ft 7s 5s 13
mph
1019.4mb 56f 59f